Time;durP1;ratioP1;P1;durP2;ratioP2;P2;SDS_P1;SDS_P2;PMS_P1;PMS_P2;Temp;Humidity;BMP_temperature;BMP_pressure;BME280_temperature;BME280_humidity;BME280_pressure;Samples;Min_cycle;Max_cycle;Signal;HPM_P1;HPM_P2
2024/04/24 00:02:17;;;;;;;7.43;6.47;;;3.80;99.90;;;;;;5279472;27;20274;-70
2024/04/24 00:04:42;;;;;;;5.30;4.80;;;3.70;99.90;;;;;;5293242;27;20263;-70
2024/04/24 00:07:08;;;;;;;5.77;5.17;;;3.70;99.90;;;;;;5287469;27;20753;-71
2024/04/24 00:09:33;;;;;;;4.73;4.33;;;3.70;99.90;;;;;;5306502;27;20340;-70
2024/04/24 00:11:59;;;;;;;5.67;5.13;;;3.70;99.90;;;;;;5284093;27;20269;-70
2024/04/24 00:14:26;;;;;;;5.43;4.83;;;3.70;99.90;;;;;;5288856;27;20719;-70
2024/04/24 00:16:52;;;;;;;7.63;5.60;;;3.70;99.90;;;;;;5285536;26;20510;-70
2024/04/24 00:19:17;;;;;;;7.27;5.60;;;3.60;99.90;;;;;;5278816;27;20466;-71
2024/04/24 00:21:43;;;;;;;12.10;5.13;;;3.60;99.90;;;;;;5296503;27;20311;-70
2024/04/24 00:24:14;;;;;;;5.70;5.10;;;3.60;99.90;;;;;;5305546;26;20792;-70
2024/04/24 00:26:39;;;;;;;7.77;5.70;;;3.60;99.90;;;;;;5305048;27;20708;-69
2024/04/24 00:29:05;;;;;;;6.27;5.63;;;3.60;99.90;;;;;;5302385;26;20586;-70
2024/04/24 00:31:30;;;;;;;6.03;5.10;;;3.60;99.90;;;;;;5302047;26;20470;-70
2024/04/24 00:33:56;;;;;;;5.83;4.90;;;3.60;99.90;;;;;;5281520;27;20353;-70
2024/04/24 00:36:21;;;;;;;6.00;5.20;;;3.50;99.90;;;;;;5311800;26;20226;-69
2024/04/24 00:38:47;;;;;;;5.50;5.00;;;3.50;99.90;;;;;;5310117;26;20226;-70
2024/04/24 00:41:12;;;;;;;5.57;4.53;;;3.40;99.90;;;;;;5308472;26;20226;-70
2024/04/24 00:43:38;;;;;;;6.70;4.80;;;3.30;99.90;;;;;;5311974;26;20261;-70
2024/04/24 00:46:04;;;;;;;5.03;4.53;;;3.30;99.90;;;;;;5286555;27;20230;-70
2024/04/24 00:48:30;;;;;;;5.83;5.20;;;3.30;99.90;;;;;;5309198;26;20242;-70
2024/04/24 00:50:58;;;;;;;5.30;4.80;;;3.20;99.90;;;;;;5302978;26;20234;-71
2024/04/24 00:53:24;;;;;;;7.00;4.90;;;3.20;99.90;;;;;;5304467;27;20596;-68
2024/04/24 00:55:49;;;;;;;5.60;4.97;;;3.30;99.90;;;;;;5281553;26;20462;-68
2024/04/24 00:58:17;;;;;;;4.60;4.30;;;3.30;99.90;;;;;;5283081;27;20294;-68
2024/04/24 01:00:42;;;;;;;5.50;4.23;;;3.30;99.90;;;;;;5282113;27;20573;-68
2024/04/24 01:03:09;;;;;;;5.37;4.87;;;3.20;99.90;;;;;;5287218;27;20457;-68
2024/04/24 01:05:35;;;;;;;5.33;4.93;;;3.30;99.90;;;;;;5282393;27;20335;-68
2024/04/24 01:08:01;;;;;;;5.37;4.97;;;3.30;99.90;;;;;;5278901;27;20873;-68
2024/04/24 01:10:27;;;;;;;5.03;4.53;;;3.20;99.90;;;;;;5297448;27;20473;-68
2024/04/24 01:12:52;;;;;;;5.83;5.23;;;3.30;99.90;;;;;;5293434;26;21085;-68
2024/04/24 01:15:18;;;;;;;5.20;4.67;;;3.30;99.90;;;;;;5304171;26;20309;-68
2024/04/24 01:17:47;;;;;;;5.70;4.80;;;3.40;99.90;;;;;;5310653;27;20280;-69
2024/04/24 01:20:34;;;;;;;5.63;5.03;;;3.40;99.90;;;;;;5305403;26;20485;-69
2024/04/24 01:23:04;;;;;;;9.03;4.83;;;3.50;99.90;;;;;;5299727;26;20874;-69
2024/04/24 01:25:44;;;;;;;5.47;5.00;;;3.60;99.90;;;;;;5307875;27;20465;-69
2024/04/24 01:28:09;;;;;;;4.70;4.30;;;3.60;99.90;;;;;;5286306;27;20574;-69
2024/04/24 01:30:35;;;;;;;6.30;4.60;;;3.70;99.90;;;;;;5309133;26;20484;-68
2024/04/24 01:33:00;;;;;;;7.37;4.80;;;3.70;99.90;;;;;;5305833;26;20269;-69
2024/04/24 01:35:26;;;;;;;5.90;5.30;;;3.80;99.90;;;;;;5281764;26;20274;-69
2024/04/24 01:37:51;;;;;;;5.97;5.43;;;3.80;99.90;;;;;;5280061;27;20231;-69
2024/04/24 01:40:17;;;;;;;5.80;4.97;;;3.80;99.90;;;;;;5302341;27;20746;-69
2024/04/24 01:42:42;;;;;;;4.90;4.30;;;3.80;99.90;;;;;;5309713;26;20250;-69
2024/04/24 01:45:08;;;;;;;5.17;4.67;;;3.90;99.90;;;;;;5304645;27;20257;-69
2024/04/24 01:47:33;;;;;;;5.00;4.50;;;4.00;99.90;;;;;;5302205;26;20577;-69
2024/04/24 01:49:59;;;;;;;4.63;4.23;;;4.00;99.90;;;;;;5277145;27;20270;-69
2024/04/24 01:52:24;;;;;;;5.10;4.57;;;4.10;99.90;;;;;;5290939;27;20335;-69
2024/04/24 01:54:50;;;;;;;6.20;5.60;;;4.10;99.90;;;;;;5308621;26;20277;-69
2024/04/24 01:57:15;;;;;;;5.73;5.23;;;4.10;99.90;;;;;;5310842;26;20252;-69
2024/04/24 01:59:41;;;;;;;6.00;5.50;;;4.20;99.90;;;;;;5303402;26;20253;-69
2024/04/24 02:02:06;;;;;;;6.20;5.27;;;4.30;99.90;;;;;;5284441;26;20851;-69
2024/04/24 02:04:32;;;;;;;5.00;4.50;;;4.30;99.90;;;;;;5277041;27;20270;-70
2024/04/24 02:06:57;;;;;;;5.10;4.70;;;4.30;99.90;;;;;;5276894;27;20257;-70
2024/04/24 02:09:23;;;;;;;5.33;4.83;;;4.30;99.90;;;;;;5311167;26;20238;-70
2024/04/24 02:11:48;;;;;;;6.53;5.90;;;4.40;99.90;;;;;;5295912;26;20273;-70
2024/04/24 02:14:14;;;;;;;6.80;5.37;;;4.40;99.90;;;;;;5290738;27;20293;-70
2024/04/24 02:16:39;;;;;;;5.40;4.90;;;4.40;99.90;;;;;;5306913;26;20222;-70
2024/04/24 02:19:04;;;;;;;8.70;4.97;;;4.40;99.90;;;;;;5311051;26;20759;-70
2024/04/24 02:21:30;;;;;;;5.50;4.90;;;4.50;99.90;;;;;;5310557;26;20268;-70
2024/04/24 02:23:58;;;;;;;6.20;5.70;;;4.50;99.90;;;;;;5306006;26;20234;-70
2024/04/24 02:26:23;;;;;;;6.87;5.90;;;4.50;99.90;;;;;;5310111;26;20607;-70
2024/04/24 02:28:49;;;;;;;5.67;5.07;;;4.50;99.90;;;;;;5310674;27;20586;-70
2024/04/24 02:31:14;;;;;;;6.93;5.60;;;4.50;99.90;;;;;;5287333;26;20227;-70
2024/04/24 02:33:40;;;;;;;7.93;5.90;;;4.30;99.90;;;;;;5287867;27;20723;-70
2024/04/24 02:36:05;;;;;;;6.40;5.80;;;4.30;99.90;;;;;;5285012;26;20231;-70
2024/04/24 02:38:31;;;;;;;6.83;6.13;;;4.30;99.90;;;;;;5291302;27;20221;-70
2024/04/24 02:40:56;;;;;;;8.80;5.50;;;4.30;99.90;;;;;;5294839;26;20266;-70
2024/04/24 02:43:22;;;;;;;6.37;5.77;;;4.30;99.90;;;;;;5287847;27;20229;-70
2024/04/24 02:45:47;;;;;;;6.40;5.90;;;4.40;99.90;;;;;;5294437;27;20591;-70
2024/04/24 02:48:13;;;;;;;6.10;5.50;;;4.40;99.90;;;;;;5276279;27;20223;-70
2024/04/24 02:50:38;;;;;;;6.47;5.83;;;4.40;99.90;;;;;;5286407;27;20238;-70
2024/04/24 02:53:04;;;;;;;9.63;6.00;;;4.40;99.90;;;;;;5307641;26;20228;-70
2024/04/24 02:55:30;;;;;;;6.87;5.93;;;4.40;99.90;;;;;;5302037;26;20226;-70
2024/04/24 02:57:56;;;;;;;5.73;5.23;;;4.50;99.90;;;;;;5309899;26;20489;-70
2024/04/24 03:00:21;;;;;;;7.40;6.23;;;4.50;99.90;;;;;;5305810;27;20227;-70
2024/04/24 03:02:47;;;;;;;7.00;6.30;;;4.50;99.90;;;;;;5310579;26;20320;-70
2024/04/24 03:05:12;;;;;;;7.20;6.50;;;4.40;99.90;;;;;;5297729;26;20333;-70
2024/04/24 03:07:38;;;;;;;7.00;6.30;;;4.40;99.90;;;;;;5299487;26;20227;-70
2024/04/24 03:10:04;;;;;;;7.30;6.10;;;4.40;99.90;;;;;;5306425;27;20325;-70
2024/04/24 03:12:30;;;;;;;6.40;5.70;;;4.40;99.90;;;;;;5303822;26;20555;-70
2024/04/24 03:14:55;;;;;;;7.00;6.30;;;4.30;99.90;;;;;;5301893;26;20581;-70
2024/04/24 03:17:21;;;;;;;7.43;6.70;;;4.30;99.90;;;;;;5282500;27;20235;-70
2024/04/24 03:19:46;;;;;;;8.27;6.80;;;4.20;99.90;;;;;;5275655;27;20649;-70
2024/04/24 03:22:13;;;;;;;8.07;7.27;;;4.20;99.90;;;;;;5278328;27;20226;-70
2024/04/24 03:24:39;;;;;;;7.37;6.67;;;4.10;99.90;;;;;;5295144;27;20223;-70
2024/04/24 03:27:04;;;;;;;7.70;6.73;;;4.00;99.90;;;;;;5307060;27;20517;-70
2024/04/24 03:29:30;;;;;;;9.90;6.50;;;4.00;99.90;;;;;;5310158;26;20515;-70
2024/04/24 03:31:55;;;;;;;7.40;6.70;;;3.90;99.90;;;;;;5307286;27;20242;-70
2024/04/24 03:34:22;;;;;;;6.90;6.30;;;3.80;99.90;;;;;;5302297;26;20278;-70
2024/04/24 03:36:48;;;;;;;7.23;6.60;;;3.70;99.90;;;;;;5285340;27;20265;-70
2024/04/24 03:39:14;;;;;;;7.97;7.17;;;3.70;99.90;;;;;;5279433;27;20518;-70
2024/04/24 03:41:39;;;;;;;7.73;7.03;;;3.60;99.90;;;;;;5287888;27;20460;-70
2024/04/24 03:44:05;;;;;;;8.43;7.00;;;3.50;99.90;;;;;;5309085;26;20615;-70
2024/04/24 03:46:31;;;;;;;7.93;7.17;;;3.50;99.90;;;;;;5288531;27;20222;-70
2024/04/24 03:48:57;;;;;;;7.83;6.43;;;3.50;99.90;;;;;;5279718;26;20305;-70
2024/04/24 03:51:23;;;;;;;8.37;6.90;;;3.50;99.90;;;;;;5278754;27;20317;-70
2024/04/24 03:53:49;;;;;;;7.77;6.97;;;3.50;99.90;;;;;;5278874;27;20449;-70
2024/04/24 03:56:14;;;;;;;7.60;6.80;;;3.50;99.90;;;;;;5304445;27;20871;-70
2024/04/24 03:58:40;;;;;;;8.23;7.37;;;3.40;99.90;;;;;;5282242;26;20228;-70
2024/04/24 04:01:05;;;;;;;7.60;6.80;;;3.40;99.90;;;;;;5279458;27;20220;-70
2024/04/24 04:03:31;;;;;;;8.50;7.50;;;3.50;99.90;;;;;;5280824;27;20277;-70
2024/04/24 04:05:56;;;;;;;7.93;7.23;;;3.50;99.90;;;;;;5294231;27;20719;-70
2024/04/24 04:08:22;;;;;;;7.60;6.90;;;3.50;99.90;;;;;;5302399;26;20712;-70
2024/04/24 04:10:48;;;;;;;11.17;8.53;;;3.60;99.90;;;;;;5295827;26;20227;-70
2024/04/24 04:13:14;;;;;;;9.37;8.47;;;3.60;99.90;;;;;;5297634;27;20468;-70
2024/04/24 04:15:39;;;;;;;8.57;7.53;;;3.60;99.90;;;;;;5286797;26;20609;-70
2024/04/24 04:18:05;;;;;;;9.63;8.63;;;3.60;99.90;;;;;;5282133;27;20227;-70
2024/04/24 04:20:30;;;;;;;10.00;9.10;;;3.60;99.90;;;;;;5277859;27;20707;-70
2024/04/24 04:23:00;;;;;;;10.80;8.93;;;3.60;99.90;;;;;;5278606;27;20215;-70
2024/04/24 04:25:27;;;;;;;9.43;8.63;;;3.60;99.90;;;;;;5280318;27;20215;-70
2024/04/24 04:27:53;;;;;;;8.27;7.47;;;3.60;99.90;;;;;;5311767;26;21068;-70
2024/04/24 04:30:18;;;;;;;9.13;8.03;;;3.60;99.90;;;;;;5286592;27;20470;-70
2024/04/24 04:32:44;;;;;;;9.07;8.17;;;3.50;99.90;;;;;;5278359;27;20227;-70
2024/04/24 04:35:09;;;;;;;12.80;8.20;;;3.50;99.90;;;;;;5281539;27;20223;-70
2024/04/24 04:37:35;;;;;;;7.93;7.23;;;3.40;99.90;;;;;;5312476;26;20256;-70
2024/04/24 04:40:01;;;;;;;10.37;7.80;;;3.40;99.90;;;;;;5310569;26;20354;-70
2024/04/24 04:42:26;;;;;;;7.80;7.10;;;3.30;99.90;;;;;;5306822;26;20766;-70
2024/04/24 04:44:52;;;;;;;9.03;8.27;;;3.30;99.90;;;;;;5312371;26;20519;-70
2024/04/24 04:47:17;;;;;;;8.00;7.20;;;3.30;99.90;;;;;;5308137;26;20242;-70
2024/04/24 04:49:43;;;;;;;7.40;6.70;;;3.30;99.90;;;;;;5293626;26;20238;-70
2024/04/24 04:52:08;;;;;;;8.77;7.97;;;3.30;99.90;;;;;;5312230;26;20215;-70
2024/04/24 04:54:34;;;;;;;9.40;8.17;;;3.30;99.90;;;;;;5310832;26;20230;-70
2024/04/24 04:56:59;;;;;;;9.30;8.20;;;3.30;99.90;;;;;;5309258;26;20218;-70
2024/04/24 04:59:25;;;;;;;8.73;7.73;;;3.30;99.90;;;;;;5291267;26;20297;-70
2024/04/24 05:01:50;;;;;;;9.07;8.17;;;3.20;99.90;;;;;;5301752;27;20242;-70
2024/04/24 05:04:16;;;;;;;9.27;7.57;;;3.20;99.90;;;;;;5280597;26;20278;-70
2024/04/24 05:06:41;;;;;;;9.67;8.17;;;3.20;99.90;;;;;;5277638;27;20215;-70
2024/04/24 05:09:07;;;;;;;8.50;7.60;;;3.20;99.90;;;;;;5280602;27;20639;-70
2024/04/24 05:11:32;;;;;;;8.83;8.07;;;3.20;99.90;;;;;;5290491;27;20278;-70
2024/04/24 05:13:58;;;;;;;12.10;8.70;;;3.30;99.90;;;;;;5277771;27;20223;-70
2024/04/24 05:16:23;;;;;;;11.80;9.87;;;3.40;99.90;;;;;;5287195;27;20335;-70
2024/04/24 05:18:49;;;;;;;12.23;8.47;;;3.50;99.90;;;;;;5288624;27;20235;-70
2024/04/24 05:21:14;;;;;;;11.83;9.33;;;3.70;99.90;;;;;;5297533;26;20231;-70
2024/04/24 05:23:40;;;;;;;12.23;9.63;;;3.80;99.90;;;;;;5304663;27;20230;-70
2024/04/24 05:29:06;;;;;;;8.07;7.23;;;4.10;99.90;;;;;;5289900;27;20258;-71
2024/04/24 05:31:32;;;;;;;10.27;8.03;;;4.30;99.90;;;;;;5314813;26;20497;-70
2024/04/24 05:33:58;;;;;;;7.30;6.60;;;4.50;99.90;;;;;;5313911;26;20623;-70
2024/04/24 05:36:23;;;;;;;7.00;6.30;;;4.70;99.90;;;;;;5343774;26;21027;-70
2024/04/24 05:38:49;;;;;;;8.23;7.33;;;4.80;99.90;;;;;;5334871;26;20275;-72
2024/04/24 05:41:14;;;;;;;10.07;6.70;;;4.90;99.90;;;;;;5310885;26;20302;-69
2024/04/24 05:43:40;;;;;;;7.60;6.90;;;5.00;99.90;;;;;;5310174;26;20230;-70
2024/04/24 05:46:05;;;;;;;8.17;6.57;;;5.20;99.90;;;;;;5296707;26;20297;-69
2024/04/24 05:48:31;;;;;;;12.67;7.23;;;5.30;99.90;;;;;;5281394;27;20261;-69
2024/04/24 05:50:56;;;;;;;6.90;6.30;;;5.50;99.90;;;;;;5283425;26;20231;-69
2024/04/24 05:53:22;;;;;;;5.73;5.20;;;5.70;99.90;;;;;;5277180;27;20230;-68
2024/04/24 05:55:47;;;;;;;8.97;6.10;;;5.90;99.90;;;;;;5309069;26;20265;-68
2024/04/24 05:58:13;;;;;;;8.27;6.30;;;5.90;99.90;;;;;;5310949;26;20260;-68
2024/04/24 06:00:39;;;;;;;6.70;6.03;;;6.00;99.90;;;;;;5309457;27;20257;-68
2024/04/24 06:03:06;;;;;;;6.37;5.83;;;6.20;99.90;;;;;;5295019;26;20269;-68
2024/04/24 06:05:32;;;;;;;6.60;6.03;;;6.30;99.90;;;;;;5288981;27;20227;-68
2024/04/24 06:07:58;;;;;;;6.93;6.23;;;6.50;99.90;;;;;;5291069;26;21041;-68
2024/04/24 06:10:23;;;;;;;5.93;5.33;;;6.70;99.90;;;;;;5276950;27;20501;-68
2024/04/24 06:12:49;;;;;;;5.80;5.40;;;6.60;99.90;;;;;;5281566;27;20238;-69
2024/04/24 06:15:14;;;;;;;7.20;6.60;;;6.70;99.90;;;;;;5309519;26;20221;-69
2024/04/24 06:17:40;;;;;;;7.17;6.47;;;6.80;99.90;;;;;;5310655;26;20206;-69
2024/04/24 06:20:06;;;;;;;6.60;6.00;;;6.80;99.90;;;;;;5310921;26;20222;-68
2024/04/24 06:22:32;;;;;;;6.93;6.23;;;6.90;99.90;;;;;;5311125;26;20222;-68
2024/04/24 06:24:57;;;;;;;7.57;6.87;;;7.00;99.90;;;;;;5280482;26;20522;-69
2024/04/24 06:27:23;;;;;;;9.07;8.23;;;7.40;99.90;;;;;;5276716;27;20831;-68
2024/04/24 06:29:48;;;;;;;7.90;7.20;;;7.70;99.90;;;;;;5276918;27;20262;-69
2024/04/24 06:32:14;;;;;;;8.10;7.30;;;8.20;99.90;;;;;;5276767;27;20215;-68
2024/04/24 06:34:41;;;;;;;9.80;8.33;;;8.30;99.90;;;;;;5276769;27;20684;-69
2024/04/24 06:37:06;;;;;;;9.50;8.03;;;8.40;1.00;;;;;;5278610;27;20219;-68
2024/04/24 06:39:32;;;;;;;10.77;7.90;;;8.10;5.00;;;;;;5277076;27;20510;-68
2024/04/24 06:41:57;;;;;;;8.20;7.40;;;7.90;99.90;;;;;;5276558;27;20273;-68
2024/04/24 06:44:23;;;;;;;10.33;9.50;;;7.80;1.00;;;;;;5276594;27;20229;-68
2024/04/24 06:46:48;;;;;;;9.73;8.80;;;7.70;1.00;;;;;;5276410;27;20634;-68
2024/04/24 06:49:14;;;;;;;10.87;9.80;;;7.60;63.00;;;;;;5276463;27;20219;-69
2024/04/24 06:51:39;;;;;;;9.57;8.57;;;7.60;99.90;;;;;;5278175;27;20269;-68
2024/04/24 06:54:05;;;;;;;11.03;8.57;;;7.80;99.90;;;;;;5276575;27;20577;-68
2024/04/24 06:56:30;;;;;;;15.83;9.90;;;7.70;1.00;;;;;;5276356;27;20781;-68
2024/04/24 06:58:56;;;;;;;10.00;9.17;;;7.70;1.00;;;;;;5276424;27;20227;-69
2024/04/24 07:01:21;;;;;;;9.90;8.90;;;7.70;75.30;;;;;;5279592;27;20219;-69
2024/04/24 07:03:47;;;;;;;10.53;9.53;;;7.60;15.90;;;;;;5310422;26;20210;-68
2024/04/24 07:06:12;;;;;;;12.80;9.10;;;7.40;1.00;;;;;;5309607;26;20210;-68
2024/04/24 07:08:38;;;;;;;9.40;8.60;;;7.50;1.00;;;;;;5308882;27;20264;-68
2024/04/24 07:11:04;;;;;;;11.30;10.00;;;7.60;1.00;;;;;;5312141;26;20601;-68
2024/04/24 07:13:29;;;;;;;10.27;9.37;;;7.50;99.90;;;;;;5313764;26;20965;-68
2024/04/24 07:15:55;;;;;;;11.30;10.20;;;7.50;99.90;;;;;;5302295;26;20273;-69
2024/04/24 07:18:20;;;;;;;12.53;11.27;;;7.40;99.90;;;;;;5279479;27;20253;-68
2024/04/24 07:20:46;;;;;;;11.37;10.10;;;7.40;1.00;;;;;;5279236;27;20270;-68
2024/04/24 07:23:12;;;;;;;12.43;11.20;;;7.50;1.00;;;;;;5282559;27;20273;-69
2024/04/24 07:25:37;;;;;;;11.40;10.30;;;7.60;99.90;;;;;;5280529;27;20210;-69
2024/04/24 07:28:03;;;;;;;11.67;10.47;;;7.50;7.70;;;;;;5279821;27;20219;-68
2024/04/24 07:30:29;;;;;;;13.23;11.30;;;7.40;1.00;;;;;;5287330;27;20227;-69
2024/04/24 07:32:55;;;;;;;13.77;11.37;;;7.30;99.90;;;;;;5296134;27;20227;-68
2024/04/24 07:35:20;;;;;;;12.57;11.37;;;7.30;99.90;;;;;;5284672;27;20525;-69
2024/04/24 07:37:46;;;;;;;11.00;10.03;;;7.20;99.90;;;;;;5292184;27;20231;-69
2024/04/24 07:40:11;;;;;;;11.27;10.20;;;7.20;99.90;;;;;;5283314;27;20743;-69
2024/04/24 07:42:38;;;;;;;11.30;10.10;;;7.00;1.00;;;;;;5289228;27;20635;-69
2024/04/24 07:45:04;;;;;;;11.80;10.03;;;6.90;99.90;;;;;;5288283;27;20250;-68
2024/04/24 07:47:29;;;;;;;11.27;10.27;;;7.10;1.00;;;;;;5284367;27;20430;-68
2024/04/24 07:49:55;;;;;;;11.33;10.30;;;7.20;99.90;;;;;;5280903;27;20924;-69
2024/04/24 07:52:20;;;;;;;11.80;10.57;;;7.40;1.00;;;;;;5281380;27;20218;-68
2024/04/24 07:54:46;;;;;;;11.00;9.90;;;7.30;1.00;;;;;;5279114;27;20302;-69
2024/04/24 07:57:12;;;;;;;11.00;10.00;;;7.40;99.90;;;;;;5278826;27;20258;-68
2024/04/24 07:59:37;;;;;;;13.33;11.93;;;7.40;99.90;;;;;;5294869;22;20255;-70
2024/04/24 08:02:03;;;;;;;11.93;10.23;;;7.20;1.00;;;;;;5278763;27;20807;-69
2024/04/24 08:04:28;;;;;;;11.87;10.67;;;7.20;92.60;;;;;;5278877;27;20274;-70
2024/04/24 08:06:54;;;;;;;12.63;11.33;;;7.10;99.90;;;;;;5277635;27;20334;-69
2024/04/24 08:09:19;;;;;;;11.87;10.77;;;6.90;1.00;;;;;;5284019;27;20227;-70
2024/04/24 08:11:45;;;;;;;11.70;10.50;;;6.90;74.70;;;;;;5312579;26;20222;-69
2024/04/24 08:14:11;;;;;;;12.03;10.93;;;6.80;99.90;;;;;;5312991;26;20267;-69
2024/04/24 08:16:36;;;;;;;10.70;9.60;;;6.80;1.00;;;;;;5312619;26;20334;-70
2024/04/24 08:19:02;;;;;;;12.63;10.03;;;6.80;1.00;;;;;;5312970;26;20501;-70
2024/04/24 08:21:28;;;;;;;11.70;10.53;;;6.80;1.00;;;;;;5309589;27;20222;-69
2024/04/24 08:23:53;;;;;;;14.60;10.20;;;7.00;1.00;;;;;;5312763;26;20226;-71
2024/04/24 08:26:20;;;;;;;11.20;9.93;;;7.20;99.90;;;;;;5311030;27;20218;-70
2024/04/24 08:28:45;;;;;;;11.43;10.33;;;7.20;1.00;;;;;;5312460;27;20218;-69
2024/04/24 08:31:11;;;;;;;11.03;9.93;;;7.20;99.90;;;;;;5312316;26;20584;-70
2024/04/24 08:33:36;;;;;;;11.50;10.40;;;7.40;99.90;;;;;;5312935;26;20281;-70
2024/04/24 08:36:10;;;;;;;11.20;10.20;;;7.60;1.00;;;;;;5312516;26;20264;-70
2024/04/24 08:38:37;;;;;;;12.20;11.07;;;7.80;99.90;;;;;;5309282;26;20257;-69
2024/04/24 08:41:07;;;;;;;12.33;11.13;;;7.90;99.90;;;;;;5312562;26;20457;-69
2024/04/24 08:43:41;;;;;;;14.00;11.20;;;8.00;1.00;;;;;;5312688;26;20816;-69
2024/04/24 08:46:10;;;;;;;13.30;10.27;;;7.90;1.00;;;;;;5312473;26;20445;-70
2024/04/24 08:48:39;;;;;;;10.47;9.47;;;8.00;99.90;;;;;;5312448;26;20441;-69
2024/04/24 08:51:06;;;;;;;10.13;9.13;;;8.00;99.90;;;;;;5309335;26;20465;-69
2024/04/24 08:53:32;;;;;;;12.50;8.93;;;8.10;99.90;;;;;;5312432;26;21041;-70
2024/04/24 08:55:59;;;;;;;9.93;9.03;;;8.00;99.90;;;;;;5312267;26;20461;-70
2024/04/24 08:58:27;;;;;;;10.23;9.13;;;7.90;99.90;;;;;;5311989;26;21072;-69
2024/04/24 09:01:01;;;;;;;14.67;9.00;;;7.70;99.90;;;;;;5311962;26;21133;-70
2024/04/24 09:03:34;;;;;;;11.50;10.40;;;7.60;99.90;;;;;;5312409;27;20944;-69
2024/04/24 09:06:02;;;;;;;11.20;10.00;;;7.50;99.90;;;;;;5309381;26;20514;-69
2024/04/24 09:08:31;;;;;;;11.00;9.77;;;7.60;99.90;;;;;;5311978;26;20449;-70
2024/04/24 09:10:56;;;;;;;9.83;8.93;;;7.60;99.90;;;;;;5311872;26;20580;-69
2024/04/24 09:13:23;;;;;;;10.80;9.70;;;7.50;99.90;;;;;;5312142;26;20461;-70
2024/04/24 09:15:52;;;;;;;12.67;9.83;;;7.50;99.90;;;;;;5312285;26;20214;-70
2024/04/24 09:18:17;;;;;;;9.90;9.10;;;7.50;99.90;;;;;;5311776;26;20441;-69
2024/04/24 09:20:46;;;;;;;11.03;9.93;;;7.40;99.90;;;;;;5308960;26;20480;-70
2024/04/24 09:23:14;;;;;;;11.17;9.97;;;7.40;99.90;;;;;;5312011;26;20214;-69
2024/04/24 09:25:40;;;;;;;15.03;11.53;;;7.30;99.90;;;;;;5312358;26;20869;-68
2024/04/24 09:28:06;;;;;;;14.53;12.40;;;6.80;99.90;;;;;;5311635;26;20441;-69
2024/04/24 09:30:32;;;;;;;13.93;12.40;;;6.50;99.90;;;;;;5311454;26;20313;-69
2024/04/24 09:32:57;;;;;;;14.13;12.33;;;6.40;99.90;;;;;;5311054;26;20453;-69
2024/04/24 09:35:23;;;;;;;12.53;11.27;;;6.40;99.90;;;;;;5309200;26;20272;-69
2024/04/24 09:37:51;;;;;;;12.33;11.20;;;6.40;99.90;;;;;;5311434;26;20218;-71
2024/04/24 09:40:16;;;;;;;13.60;12.30;;;6.50;99.90;;;;;;5311515;26;20821;-71
2024/04/24 09:42:44;;;;;;;17.93;11.53;;;6.50;99.90;;;;;;5311749;26;20441;-68
2024/04/24 09:45:10;;;;;;;12.83;11.57;;;6.50;99.90;;;;;;5311542;26;20226;-69
2024/04/24 09:47:35;;;;;;;13.23;11.90;;;6.50;99.90;;;;;;5311377;26;20797;-68
2024/04/24 09:50:03;;;;;;;14.17;12.60;;;6.60;99.90;;;;;;5309006;26;20231;-69
2024/04/24 09:52:28;;;;;;;13.93;12.60;;;6.70;99.90;;;;;;5311421;26;20222;-69
2024/04/24 09:54:54;;;;;;;15.73;14.13;;;6.90;99.90;;;;;;5311472;26;20507;-69
2024/04/24 09:57:26;;;;;;;13.00;11.67;;;7.00;99.90;;;;;;5311325;26;20206;-69
2024/04/24 09:59:56;;;;;;;14.40;13.00;;;7.20;99.90;;;;;;5310942;26;20699;-69
2024/04/24 10:02:25;;;;;;;13.00;11.80;;;7.20;99.90;;;;;;5311412;26;20445;-69
2024/04/24 10:05:03;;;;;;;13.73;12.43;;;7.20;99.90;;;;;;5290311;26;20524;-69
2024/04/24 10:07:34;;;;;;;12.63;11.43;;;7.20;99.90;;;;;;5277072;27;21055;-69
2024/04/24 10:10:01;;;;;;;14.00;12.60;;;7.30;99.90;;;;;;5276996;27;21332;-69
2024/04/24 10:12:34;;;;;;;12.47;11.33;;;7.40;99.90;;;;;;5277251;27;20972;-69
2024/04/24 10:15:11;;;;;;;11.20;10.30;;;7.60;99.90;;;;;;5277377;27;20455;-69
2024/04/24 10:17:38;;;;;;;11.20;10.20;;;7.80;99.90;;;;;;5277040;27;20450;-69
2024/04/24 10:20:04;;;;;;;17.90;11.80;;;7.80;99.90;;;;;;5279144;27;21018;-69
2024/04/24 10:22:33;;;;;;;12.63;11.33;;;8.10;99.90;;;;;;5277039;27;20450;-69
2024/04/24 10:25:01;;;;;;;10.13;9.13;;;8.10;99.90;;;;;;5276872;27;20506;-69
2024/04/24 10:27:30;;;;;;;10.97;9.97;;;8.20;99.90;;;;;;5276707;27;20446;-69
2024/04/24 10:29:56;;;;;;;9.37;8.50;;;8.20;99.90;;;;;;5276527;27;20466;-69
2024/04/24 10:32:27;;;;;;;10.03;8.93;;;8.30;99.90;;;;;;5276880;27;20450;-69
2024/04/24 10:34:55;;;;;;;9.13;8.23;;;8.20;99.90;;;;;;5278839;27;20458;-69
2024/04/24 10:37:21;;;;;;;8.23;7.50;;;8.00;99.90;;;;;;5276398;27;20482;-69
2024/04/24 10:39:48;;;;;;;8.30;7.60;;;7.90;99.90;;;;;;5276593;27;20987;-69
2024/04/24 10:42:14;;;;;;;8.57;7.77;;;7.80;99.90;;;;;;5277146;27;20211;-69
2024/04/24 10:44:42;;;;;;;7.90;7.20;;;7.90;99.90;;;;;;5275356;27;20446;-69
2024/04/24 10:47:08;;;;;;;7.57;6.87;;;8.10;99.90;;;;;;5276345;27;20434;-69
2024/04/24 10:49:33;;;;;;;6.03;5.63;;;8.00;99.90;;;;;;5278638;27;21257;-69
2024/04/24 10:51:59;;;;;;;7.60;7.00;;;8.00;99.90;;;;;;5276208;27;20455;-69
2024/04/24 10:54:28;;;;;;;6.30;5.80;;;8.00;99.90;;;;;;5276580;27;20346;-69
2024/04/24 10:56:56;;;;;;;7.20;6.50;;;7.80;99.90;;;;;;5276381;27;20223;-68
2024/04/24 10:59:34;;;;;;;7.80;7.10;;;7.80;99.90;;;;;;5276505;27;20553;-69
2024/04/24 11:02:17;;;;;;;6.70;6.10;;;7.70;99.90;;;;;;5278111;27;20438;-70
2024/04/24 11:04:43;;;;;;;7.50;6.80;;;7.70;99.90;;;;;;5276573;27;20446;-68
2024/04/24 11:07:09;;;;;;;6.70;6.20;;;7.60;99.90;;;;;;5274326;27;20983;-68
2024/04/24 11:09:35;;;;;;;6.80;6.30;;;7.50;99.90;;;;;;5276285;27;20475;-68
2024/04/24 11:12:03;;;;;;;7.67;7.07;;;7.50;99.90;;;;;;5276091;27;20271;-68
2024/04/24 11:14:39;;;;;;;7.13;6.43;;;7.60;99.90;;;;;;5276066;27;20534;-68
2024/04/24 11:17:04;;;;;;;7.00;6.40;;;7.70;99.90;;;;;;5277909;27;21051;-68
2024/04/24 11:19:31;;;;;;;8.30;7.60;;;7.80;99.90;;;;;;5274418;27;20877;-68
2024/04/24 11:21:57;;;;;;;6.70;6.20;;;7.70;99.90;;;;;;5275858;27;20788;-68
2024/04/24 11:24:29;;;;;;;6.70;6.10;;;7.60;99.90;;;;;;5276072;27;20506;-68
2024/04/24 11:26:55;;;;;;;6.17;5.67;;;7.60;99.90;;;;;;5276002;27;20622;-68
2024/04/24 11:29:20;;;;;;;5.70;5.20;;;7.60;99.90;;;;;;5275910;27;20516;-69
2024/04/24 11:31:47;;;;;;;6.47;5.87;;;7.70;99.90;;;;;;5277478;27;20282;-69
2024/04/24 11:34:14;;;;;;;6.10;5.57;;;7.90;99.90;;;;;;5275859;27;20646;-68
2024/04/24 11:36:42;;;;;;;6.37;5.83;;;8.20;99.90;;;;;;5275543;27;20563;-68
2024/04/24 11:39:11;;;;;;;6.10;5.60;;;8.60;99.90;;;;;;5275777;27;20875;-68
2024/04/24 11:41:37;;;;;;;7.17;5.50;;;8.90;99.90;;;;;;5275728;27;20507;-69
2024/04/24 11:44:04;;;;;;;5.20;4.80;;;9.00;99.90;;;;;;5275647;27;20458;-68
2024/04/24 11:46:30;;;;;;;5.50;4.90;;;9.00;99.90;;;;;;5277702;27;20223;-68
2024/04/24 11:48:56;;;;;;;5.20;4.90;;;8.90;99.90;;;;;;5275475;27;20564;-68
2024/04/24 11:51:22;;;;;;;9.90;5.67;;;9.10;99.90;;;;;;5275247;27;20450;-68
2024/04/24 11:53:49;;;;;;;6.00;5.40;;;9.20;99.90;;;;;;5275724;27;20489;-69
2024/04/24 11:56:15;;;;;;;5.20;4.80;;;9.50;99.90;;;;;;5277064;27;20506;-68
2024/04/24 11:58:42;;;;;;;5.40;5.00;;;9.30;99.90;;;;;;5278707;27;20522;-68
2024/04/24 12:01:08;;;;;;;5.10;4.70;;;9.20;99.90;;;;;;5286912;27;20481;-68
2024/04/24 12:03:34;;;;;;;5.47;5.03;;;9.00;99.90;;;;;;5312951;26;20797;-68
2024/04/24 12:06:00;;;;;;;5.60;5.03;;;9.00;99.90;;;;;;5313016;26;20500;-68
2024/04/24 12:08:26;;;;;;;6.30;5.80;;;9.30;99.90;;;;;;5312795;26;20218;-68
2024/04/24 12:10:59;;;;;;;6.07;5.57;;;9.40;99.90;;;;;;5312730;26;20870;-68
2024/04/24 12:13:34;;;;;;;6.53;5.80;;;9.30;99.90;;;;;;5311101;27;20222;-68
2024/04/24 12:16:01;;;;;;;4.70;4.40;;;9.10;99.90;;;;;;5309188;27;21072;-68
2024/04/24 12:18:27;;;;;;;6.47;5.87;;;9.00;99.90;;;;;;5312712;26;20457;-69
2024/04/24 12:20:53;;;;;;;5.40;4.97;;;8.90;99.90;;;;;;5312719;26;20469;-68
2024/04/24 12:23:24;;;;;;;4.80;4.50;;;9.20;99.90;;;;;;5312784;26;20452;-69
2024/04/24 12:25:50;;;;;;;5.07;4.57;;;9.90;99.90;;;;;;5312675;26;21077;-68
2024/04/24 12:28:15;;;;;;;5.10;4.70;;;10.10;99.90;;;;;;5301708;26;20533;-69
2024/04/24 12:30:41;;;;;;;5.13;4.63;;;10.50;99.90;;;;;;5278427;27;21024;-73
2024/04/24 12:33:08;;;;;;;5.80;5.30;;;10.80;99.90;;;;;;5280551;27;20763;-69
2024/04/24 12:35:34;;;;;;;5.50;4.63;;;11.00;99.80;;;;;;5278446;27;20598;-69
2024/04/24 12:38:00;;;;;;;4.60;4.30;;;11.70;98.70;;;;;;5278268;27;20439;-69
2024/04/24 12:40:26;;;;;;;4.77;4.37;;;12.40;96.40;;;;;;5277925;27;20239;-69
2024/04/24 12:42:52;;;;;;;4.60;4.20;;;14.00;91.70;;;;;;5278611;27;20215;-69
2024/04/24 12:45:17;;;;;;;4.57;4.13;;;13.90;87.90;;;;;;5296364;27;20469;-69
2024/04/24 12:47:45;;;;;;;5.17;4.77;;;15.30;80.00;;;;;;5309530;26;20590;-69
2024/04/24 12:50:10;;;;;;;5.17;4.60;;;16.50;68.90;;;;;;5312365;26;20233;-69
2024/04/24 12:52:36;;;;;;;4.90;4.50;;;16.50;63.50;;;;;;5312455;26;20568;-69